Emden — 3ERP5 — position and weather

sailwx.info

Track history (hours):
 
Tides and Currents Weather Stations Pressure Air Temp Water Temp Dewpoint Dewpoint Depression Visibility Wind Speed Wind Dir Waves Ship Positions

Emden

Last reported at 2015-Mar-31 02:23 UTC. Time now 2015-Apr-01 09:27 UTC.
Position N 52°13' W 005°52'.

Length 177 m; draft 7.9 m.

Type: Ship. MMSI: 355051000.

Date/timePositionNaut miles runAvg speedWind from/ knotsBaromVisibWave heightAir tempDewpointWater temp
2015-Mar-31 02:23N 52°13' W 005°52'1011.6
2015-Mar-31 01:33N 52°23' W 005°52'3 0.1
2015-Mar-29 12:11N 52°24' W 005°48'11211.5
2015-Mar-29 02:28N 50°33' W 005°53'103 8.5
2015-Mar-28 14:19N 49°59' W 003°20'910.5
2015-Mar-28 13:29N 49°60' W 003°07'1010.4
2015-Mar-28 12:33N 50°01' W 002°52'3511.8
2015-Mar-28 09:33N 50°12' W 001°60'2013.8
2015-Mar-28 08:08N 50°17' W 001°30'914.4
2015-Mar-28 07:29N 50°20' W 001°16'1414.4
2015-Mar-28 06:31N 50°23' W 000°54'1313.6
2015-Mar-28 05:33N 50°26' W 000°35'2712.8
2015-Mar-28 03:28N 50°33' E 000°06'1112.0
2015-Mar-28 02:33N 50°36' E 000°23'1212.1
2015-Mar-28 01:33N 50°41' E 000°40'1413.5
2015-Mar-28 00:33N 50°49' E 000°57'1414.3
2015-Mar-27 23:33N 50°58' E 001°15'1414.4
2015-Mar-27 22:33N 51°07' E 001°33'1212.5
2015-Mar-27 21:33N 51°19' E 001°39'1111.1
2015-Mar-27 20:33N 51°27' E 001°28'1615.7
2015-Mar-27 19:33N 51°30' E 001°03'1212.2
2015-Mar-27 18:33N 51°26' E 000°44'0 0.2
2015-Mar-27 17:32N 51°26' E 000°44'0 0.0
2015-Mar-27 16:32N 51°26' E 000°44'0 0.0
2015-Mar-27 15:32N 51°26' E 000°44'0 0.0
2015-Mar-27 14:32N 51°26' E 000°44'0 0.0
2015-Mar-27 13:32N 51°26' E 000°44'0 0.0
2015-Mar-27 12:32N 51°26' E 000°44'0 0.0
2015-Mar-27 11:34N 51°26' E 000°44'5 4.6
2015-Mar-27 10:33N 51°29' E 000°51'1110.5
2015-Mar-27 09:33N 51°29' E 001°08'1111.0
2015-Mar-27 08:34N 51°28' E 001°25'4 4.0
2015-Mar-27 07:33N 51°27' E 001°32'4 3.6
2015-Mar-27 06:31N 51°31' E 001°32'0 0.0
2015-Mar-27 05:31N 51°31' E 001°32'0 0.0
2015-Mar-27 04:31N 51°31' E 001°32'0 0.1
2015-Mar-27 03:31N 51°31' E 001°32'0 0.0
2015-Mar-27 02:31N 51°31' E 001°32'0 0.0
2015-Mar-27 01:31N 51°31' E 001°32'0 0.0
2015-Mar-27 00:31N 51°31' E 001°32'0 0.0
2015-Mar-26 23:25N 51°31' E 001°32'0 0.1
2015-Mar-26 22:31N 51°31' E 001°32'2 1.7
2015-Mar-26 21:33N 51°32' E 001°34'1111.1
2015-Mar-26 20:34N 51°34' E 001°51'1211.7
2015-Mar-26 19:33N 51°40' E 002°08'8612.2
2015-Mar-26 12:28N 52°45' E 003°40'1111.9
2015-Mar-26 11:33N 52°53' E 003°52'1211.6
2015-Mar-26 10:34N 53°01' E 004°05'1211.7
2015-Mar-26 09:33N 53°09' E 004°21'1510.9
2015-Mar-26 08:10N 53°22' E 004°33'711.4
2015-Mar-26 07:32N 53°28' E 004°39'1313.0
2015-Mar-26 06:33N 53°33' E 004°59'1414.0
2015-Mar-26 05:34N 53°37' E 005°21'1414.2
2015-Mar-26 04:34N 53°42' E 005°44'1313.4
2015-Mar-26 03:33N 53°43' E 006°07'1110.9
2015-Mar-26 02:33N 53°37' E 006°23'1312.8
2015-Mar-26 01:33N 53°33' E 006°43'1212.2
2015-Mar-26 00:33N 53°24' E 006°57'7 7.3
2015-Mar-25 23:33N 53°20' E 007°07'2 1.5
2015-Mar-25 22:33N 53°20' E 007°10'0 0.0
2015-Mar-25 21:30N 53°20' E 007°10'0 0.0
2015-Mar-25 20:33N 53°20' E 007°10'0 0.0
2015-Mar-25 19:32N 53°20' E 007°10'0 0.0
2015-Mar-25 18:32N 53°20' E 007°10'0 0.0
2015-Mar-25 17:29N 53°20' E 007°10'0 0.0
2015-Mar-25 16:32N 53°20' E 007°10'0 0.0
2015-Mar-25 15:29N 53°20' E 007°10'0 0.0
2015-Mar-25 14:32N 53°20' E 007°10'0 0.0
2015-Mar-25 13:29N 53°20' E 007°10'0 0.0
2015-Mar-25 12:32N 53°20' E 007°10'0 0.0
2015-Mar-25 11:32N 53°20' E 007°10'0 0.0
2015-Mar-25 10:26N 53°20' E 007°10'0 0.0
2015-Mar-25 09:32N 53°20' E 007°10'0 0.0
2015-Mar-25 08:29N 53°20' E 007°10'0 0.0
2015-Mar-25 07:32N 53°20' E 007°10'0 0.0
2015-Mar-25 06:32N 53°20' E 007°10'0 0.0
2015-Mar-25 05:32N 53°20' E 007°10'0 0.0
2015-Mar-25 04:29N 53°20' E 007°10'0 0.0
2015-Mar-25 03:32N 53°20' E 007°10'0 0.0
2015-Mar-25 02:32N 53°20' E 007°10'0 0.0
2015-Mar-25 01:32N 53°20' E 007°10'0 0.0
2015-Mar-25 00:32N 53°20' E 007°10'0 0.0
2015-Mar-24 23:32N 53°20' E 007°10'0 0.0
2015-Mar-24 22:32N 53°20' E 007°10'0 0.0
2015-Mar-24 21:32N 53°20' E 007°10'0 0.0
2015-Mar-24 20:31N 53°20' E 007°10'0 0.0
2015-Mar-24 19:31N 53°20' E 007°10'0 0.0
2015-Mar-24 18:31N 53°20' E 007°10'0 0.0
2015-Mar-24 17:31N 53°20' E 007°10'0 0.0
2015-Mar-24 16:31N 53°20' E 007°10'0 0.0
2015-Mar-24 15:31N 53°20' E 007°10'0 0.0
2015-Mar-24 14:31N 53°20' E 007°10'0 0.0
2015-Mar-24 13:31N 53°20' E 007°10'0 0.0
2015-Mar-24 12:31N 53°20' E 007°10'0 0.0
2015-Mar-24 11:31N 53°20' E 007°10'0 0.0
2015-Mar-24 10:31N 53°20' E 007°10'0 0.0
2015-Mar-24 09:31N 53°20' E 007°10'0 0.0
2015-Mar-24 08:28N 53°20' E 007°10'0 0.0
2015-Mar-24 07:31N 53°20' E 007°10'0 0.0
2015-Mar-24 06:28N 53°20' E 007°10'0 0.0
2015-Mar-24 05:31N 53°20' E 007°10'0 0.0
2015-Mar-24 04:28N 53°20' E 007°10'0 0.0
2015-Mar-24 03:31N 53°20' E 007°10'0 0.0
2015-Mar-24 02:31N 53°20' E 007°10'0 0.0
2015-Mar-24 01:31N 53°20' E 007°10'0 0.0
2015-Mar-24 00:31N 53°20' E 007°10'0 0.0
2015-Mar-23 23:31N 53°20' E 007°10'0 0.0
2015-Mar-23 22:31N 53°20' E 007°10'0 0.0
2015-Mar-23 21:31N 53°20' E 007°10'0 0.0
2015-Mar-23 20:31N 53°20' E 007°10'0 0.0
2015-Mar-23 19:27N 53°20' E 007°10'0 0.0
2015-Mar-23 18:33N 53°20' E 007°10'2 1.7
2015-Mar-23 17:33N 53°20' E 007°07'8 8.5
2015-Mar-23 16:33N 53°25' E 006°56'1111.3
2015-Mar-23 15:34N 53°33' E 006°42'1110.7
2015-Mar-23 14:33N 53°37' E 006°25'6 5.6
2015-Mar-23 13:33N 53°36' E 006°16'1 1.0
2015-Mar-23 12:17N 53°36' E 006°18'0 0.0
2015-Mar-23 11:29N 53°36' E 006°18'0 0.0
2015-Mar-23 10:32N 53°36' E 006°18'0 0.0
2015-Mar-23 09:29N 53°36' E 006°18'0 0.0
2015-Mar-23 08:31N 53°36' E 006°18'0 0.0
2015-Mar-23 07:22N 53°36' E 006°18'0 0.0
2015-Mar-23 06:28N 53°36' E 006°18'0 0.1
2015-Mar-23 05:28N 53°36' E 006°18'0 0.0
2015-Mar-23 04:31N 53°36' E 006°18'0 0.0
2015-Mar-23 03:25N 53°36' E 006°18'0 0.0
2015-Mar-23 02:31N 53°36' E 006°18'0 0.1
2015-Mar-23 01:31N 53°36' E 006°18'0 0.0
2015-Mar-23 00:32N 53°36' E 006°18'0 0.0
2015-Mar-22 23:31N 53°36' E 006°18'0 0.0
2015-Mar-22 22:16N 53°36' E 006°18'0 0.0
2015-Mar-22 21:31N 53°36' E 006°18'0 0.0
2015-Mar-22 20:28N 53°36' E 006°18'0 0.1
2015-Mar-22 19:19N 53°36' E 006°18'0 0.1
2015-Mar-22 18:28N 53°36' E 006°18'0 0.0
2015-Mar-22 17:28N 53°36' E 006°18'0 0.0
2015-Mar-22 16:28N 53°36' E 006°18'0 0.0
2015-Mar-22 15:31N 53°36' E 006°18'0 0.0
2015-Mar-22 14:31N 53°36' E 006°18'0 0.0
2015-Mar-22 13:28N 53°36' E 006°18'0 0.0
2015-Mar-22 12:31N 53°36' E 006°18'0 0.0
2015-Mar-22 11:31N 53°36' E 006°18'0 0.1
2015-Mar-22 10:31N 53°36' E 006°18'0 0.0
2015-Mar-22 09:28N 53°36' E 006°18'0 0.0
2015-Mar-22 08:25N 53°36' E 006°18'1 1.5
2015-Mar-22 07:33N 53°37' E 006°16'1212.0
2015-Mar-22 06:33N 53°38' E 005°56'1313.2
2015-Mar-22 05:33N 53°35' E 005°35'1312.6
2015-Mar-22 04:33N 53°31' E 005°14'1212.0
2015-Mar-22 03:33N 53°27' E 004°55'1110.9
2015-Mar-22 02:33N 53°21' E 004°40'1211.6
2015-Mar-22 01:33N 53°11' E 004°31'1511.2
2015-Mar-22 00:12N 52°58' E 004°19'711.1
2015-Mar-21 23:33N 52°51' E 004°14'1310.4
2015-Mar-21 22:19N 52°41' E 004°01'810.3
2015-Mar-21 21:33N 52°35' E 003°53'1110.2
2015-Mar-21 20:31N 52°27' E 003°41'8411.9
2015-Mar-21 13:30N 51°24' E 002°11'1213.0
2015-Mar-21 12:33N 51°13' E 002°03'1414.0
2015-Mar-21 11:33N 51°06' E 001°44'1313.4
2015-Mar-21 10:33N 50°56' E 001°29'5511.1
2015-Mar-21 05:33N 50°22' E 000°21'  
Track history (hours):
 
Tides and Currents Weather Stations Pressure Air Temp Water Temp Dewpoint Dewpoint Depression Visibility Wind Speed Wind Dir Waves Ship Positions

Emden

Last reported at 2015-Mar-31 02:23 UTC. Time now 2015-Apr-01 09:27 UTC.
Position N 52°13' W 005°52'.

Length 177 m; draft 7.9 m.

Type: Ship. MMSI: 355051000.

Date/timePositionNaut miles runAvg speedWind from/ knotsBaromVisibWave heightAir tempDewpointWater temp
2015-Mar-31 02:23N 52°13' W 005°52'1011.6
2015-Mar-31 01:33N 52°23' W 005°52'3 0.1
2015-Mar-29 12:11N 52°24' W 005°48'11211.5
2015-Mar-29 02:28N 50°33' W 005°53'103 8.5
2015-Mar-28 14:19N 49°59' W 003°20'910.5
2015-Mar-28 13:29N 49°60' W 003°07'1010.4
2015-Mar-28 12:33N 50°01' W 002°52'3511.8
2015-Mar-28 09:33N 50°12' W 001°60'2013.8
2015-Mar-28 08:08N 50°17' W 001°30'914.4
2015-Mar-28 07:29N 50°20' W 001°16'1414.4
2015-Mar-28 06:31N 50°23' W 000°54'1313.6
2015-Mar-28 05:33N 50°26' W 000°35'2712.8
2015-Mar-28 03:28N 50°33' E 000°06'1112.0
2015-Mar-28 02:33N 50°36' E 000°23'1212.1
2015-Mar-28 01:33N 50°41' E 000°40'1413.5
2015-Mar-28 00:33N 50°49' E 000°57'1414.3
2015-Mar-27 23:33N 50°58' E 001°15'1414.4
2015-Mar-27 22:33N 51°07' E 001°33'1212.5
2015-Mar-27 21:33N 51°19' E 001°39'1111.1
2015-Mar-27 20:33N 51°27' E 001°28'1615.7
2015-Mar-27 19:33N 51°30' E 001°03'1212.2
2015-Mar-27 18:33N 51°26' E 000°44'0 0.2
2015-Mar-27 17:32N 51°26' E 000°44'0 0.0
2015-Mar-27 16:32N 51°26' E 000°44'0 0.0
2015-Mar-27 15:32N 51°26' E 000°44'0 0.0
2015-Mar-27 14:32N 51°26' E 000°44'0 0.0
2015-Mar-27 13:32N 51°26' E 000°44'0 0.0
2015-Mar-27 12:32N 51°26' E 000°44'0 0.0
2015-Mar-27 11:34N 51°26' E 000°44'5 4.6
2015-Mar-27 10:33N 51°29' E 000°51'1110.5
2015-Mar-27 09:33N 51°29' E 001°08'1111.0
2015-Mar-27 08:34N 51°28' E 001°25'4 4.0
2015-Mar-27 07:33N 51°27' E 001°32'4 3.6
2015-Mar-27 06:31N 51°31' E 001°32'0 0.0
2015-Mar-27 05:31N 51°31' E 001°32'0 0.0
2015-Mar-27 04:31N 51°31' E 001°32'0 0.1
2015-Mar-27 03:31N 51°31' E 001°32'0 0.0
2015-Mar-27 02:31N 51°31' E 001°32'0 0.0
2015-Mar-27 01:31N 51°31' E 001°32'0 0.0
2015-Mar-27 00:31N 51°31' E 001°32'0 0.0
2015-Mar-26 23:25N 51°31' E 001°32'0 0.1
2015-Mar-26 22:31N 51°31' E 001°32'2 1.7
2015-Mar-26 21:33N 51°32' E 001°34'1111.1
2015-Mar-26 20:34N 51°34' E 001°51'1211.7
2015-Mar-26 19:33N 51°40' E 002°08'8612.2
2015-Mar-26 12:28N 52°45' E 003°40'1111.9
2015-Mar-26 11:33N 52°53' E 003°52'1211.6
2015-Mar-26 10:34N 53°01' E 004°05'1211.7
2015-Mar-26 09:33N 53°09' E 004°21'1510.9
2015-Mar-26 08:10N 53°22' E 004°33'711.4
2015-Mar-26 07:32N 53°28' E 004°39'1313.0
2015-Mar-26 06:33N 53°33' E 004°59'1414.0
2015-Mar-26 05:34N 53°37' E 005°21'1414.2
2015-Mar-26 04:34N 53°42' E 005°44'1313.4
2015-Mar-26 03:33N 53°43' E 006°07'1110.9
2015-Mar-26 02:33N 53°37' E 006°23'1312.8
2015-Mar-26 01:33N 53°33' E 006°43'1212.2
2015-Mar-26 00:33N 53°24' E 006°57'7 7.3
2015-Mar-25 23:33N 53°20' E 007°07'2 1.5
2015-Mar-25 22:33N 53°20' E 007°10'0 0.0
2015-Mar-25 21:30N 53°20' E 007°10'0 0.0
2015-Mar-25 20:33N 53°20' E 007°10'0 0.0
2015-Mar-25 19:32N 53°20' E 007°10'0 0.0
2015-Mar-25 18:32N 53°20' E 007°10'0 0.0
2015-Mar-25 17:29N 53°20' E 007°10'0 0.0
2015-Mar-25 16:32N 53°20' E 007°10'0 0.0
2015-Mar-25 15:29N 53°20' E 007°10'0 0.0
2015-Mar-25 14:32N 53°20' E 007°10'0 0.0
2015-Mar-25 13:29N 53°20' E 007°10'0 0.0
2015-Mar-25 12:32N 53°20' E 007°10'0 0.0
2015-Mar-25 11:32N 53°20' E 007°10'0 0.0
2015-Mar-25 10:26N 53°20' E 007°10'0 0.0
2015-Mar-25 09:32N 53°20' E 007°10'0 0.0
2015-Mar-25 08:29N 53°20' E 007°10'0 0.0
2015-Mar-25 07:32N 53°20' E 007°10'0 0.0
2015-Mar-25 06:32N 53°20' E 007°10'0 0.0
2015-Mar-25 05:32N 53°20' E 007°10'0 0.0
2015-Mar-25 04:29N 53°20' E 007°10'0 0.0
2015-Mar-25 03:32N 53°20' E 007°10'0 0.0
2015-Mar-25 02:32N 53°20' E 007°10'0 0.0
2015-Mar-25 01:32N 53°20' E 007°10'0 0.0
2015-Mar-25 00:32N 53°20' E 007°10'0 0.0
2015-Mar-24 23:32N 53°20' E 007°10'0 0.0
2015-Mar-24 22:32N 53°20' E 007°10'0 0.0
2015-Mar-24 21:32N 53°20' E 007°10'0 0.0
2015-Mar-24 20:31N 53°20' E 007°10'0 0.0
2015-Mar-24 19:31N 53°20' E 007°10'0 0.0
2015-Mar-24 18:31N 53°20' E 007°10'0 0.0
2015-Mar-24 17:31N 53°20' E 007°10'0 0.0
2015-Mar-24 16:31N 53°20' E 007°10'0 0.0
2015-Mar-24 15:31N 53°20' E 007°10'0 0.0
2015-Mar-24 14:31N 53°20' E 007°10'0 0.0
2015-Mar-24 13:31N 53°20' E 007°10'0 0.0
2015-Mar-24 12:31N 53°20' E 007°10'0 0.0
2015-Mar-24 11:31N 53°20' E 007°10'0 0.0
2015-Mar-24 10:31N 53°20' E 007°10'0 0.0
2015-Mar-24 09:31N 53°20' E 007°10'0 0.0
2015-Mar-24 08:28N 53°20' E 007°10'0 0.0
2015-Mar-24 07:31N 53°20' E 007°10'0 0.0
2015-Mar-24 06:28N 53°20' E 007°10'0 0.0
2015-Mar-24 05:31N 53°20' E 007°10'0 0.0
2015-Mar-24 04:28N 53°20' E 007°10'0 0.0
2015-Mar-24 03:31N 53°20' E 007°10'0 0.0
2015-Mar-24 02:31N 53°20' E 007°10'0 0.0
2015-Mar-24 01:31N 53°20' E 007°10'0 0.0
2015-Mar-24 00:31N 53°20' E 007°10'0 0.0
2015-Mar-23 23:31N 53°20' E 007°10'0 0.0
2015-Mar-23 22:31N 53°20' E 007°10'0 0.0
2015-Mar-23 21:31N 53°20' E 007°10'0 0.0
2015-Mar-23 20:31N 53°20' E 007°10'0 0.0
2015-Mar-23 19:27N 53°20' E 007°10'0 0.0
2015-Mar-23 18:33N 53°20' E 007°10'2 1.7
2015-Mar-23 17:33N 53°20' E 007°07'8 8.5
2015-Mar-23 16:33N 53°25' E 006°56'1111.3
2015-Mar-23 15:34N 53°33' E 006°42'1110.7
2015-Mar-23 14:33N 53°37' E 006°25'6 5.6
2015-Mar-23 13:33N 53°36' E 006°16'1 1.0
2015-Mar-23 12:17N 53°36' E 006°18'0 0.0
2015-Mar-23 11:29N 53°36' E 006°18'0 0.0
2015-Mar-23 10:32N 53°36' E 006°18'0 0.0
2015-Mar-23 09:29N 53°36' E 006°18'0 0.0
2015-Mar-23 08:31N 53°36' E 006°18'0 0.0
2015-Mar-23 07:22N 53°36' E 006°18'0 0.0
2015-Mar-23 06:28N 53°36' E 006°18'0 0.1
2015-Mar-23 05:28N 53°36' E 006°18'0 0.0
2015-Mar-23 04:31N 53°36' E 006°18'0 0.0
2015-Mar-23 03:25N 53°36' E 006°18'0 0.0
2015-Mar-23 02:31N 53°36' E 006°18'0 0.1
2015-Mar-23 01:31N 53°36' E 006°18'0 0.0
2015-Mar-23 00:32N 53°36' E 006°18'0 0.0
2015-Mar-22 23:31N 53°36' E 006°18'0 0.0
2015-Mar-22 22:16N 53°36' E 006°18'0 0.0
2015-Mar-22 21:31N 53°36' E 006°18'0 0.0
2015-Mar-22 20:28N 53°36' E 006°18'0 0.1
2015-Mar-22 19:19N 53°36' E 006°18'0 0.1
2015-Mar-22 18:28N 53°36' E 006°18'0 0.0
2015-Mar-22 17:28N 53°36' E 006°18'0 0.0
2015-Mar-22 16:28N 53°36' E 006°18'0 0.0
2015-Mar-22 15:31N 53°36' E 006°18'0 0.0
2015-Mar-22 14:31N 53°36' E 006°18'0 0.0
2015-Mar-22 13:28N 53°36' E 006°18'0 0.0
2015-Mar-22 12:31N 53°36' E 006°18'0 0.0
2015-Mar-22 11:31N 53°36' E 006°18'0 0.1
2015-Mar-22 10:31N 53°36' E 006°18'0 0.0
2015-Mar-22 09:28N 53°36' E 006°18'0 0.0
2015-Mar-22 08:25N 53°36' E 006°18'1 1.5
2015-Mar-22 07:33N 53°37' E 006°16'1212.0
2015-Mar-22 06:33N 53°38' E 005°56'1313.2
2015-Mar-22 05:33N 53°35' E 005°35'1312.6
2015-Mar-22 04:33N 53°31' E 005°14'1212.0
2015-Mar-22 03:33N 53°27' E 004°55'1110.9
2015-Mar-22 02:33N 53°21' E 004°40'1211.6
2015-Mar-22 01:33N 53°11' E 004°31'1511.2
2015-Mar-22 00:12N 52°58' E 004°19'711.1
2015-Mar-21 23:33N 52°51' E 004°14'1310.4
2015-Mar-21 22:19N 52°41' E 004°01'810.3
2015-Mar-21 21:33N 52°35' E 003°53'1110.2
2015-Mar-21 20:31N 52°27' E 003°41'8411.9
2015-Mar-21 13:30N 51°24' E 002°11'1213.0
2015-Mar-21 12:33N 51°13' E 002°03'1414.0
2015-Mar-21 11:33N 51°06' E 001°44'1313.4
2015-Mar-21 10:33N 50°56' E 001°29'5511.1
2015-Mar-21 05:33N 50°22' E 000°21'  

Dump ship's entire track history